KPRC/PRC METAR and TAF weather

Enter ICAO airport designator
Station Type Date Time Source
KPRC METAR 2020/07/12 04:53 UTC NOAA

KPRC 120453Z AUTO 18007KT 10SM CLR 24/09 A3023 RMK AO2 SLP135 T02440094


Station Type Date Time Source
KPRC Decoded METAR 2020/07/12 04:53 UTC NOAA

PRESCOTT LOVE FIELD, AZ, United States (KPRC) 34-39N 112-25W 1524M
Jul 12, 2020 - 12:53 AM EDT / 2020.07.12 0453 UTC
Wind: from the S (180 degrees) at 8 MPH (7 KT):0
Visibility: 10 mile(s):0
Sky conditions: clear
Temperature: 75.9 F (24.4 C)
Dew Point: 48.9 F (9.4 C)
Relative Humidity: 38%
Pressure (altimeter): 30.23 in. Hg (1023 hPa)
ob: KPRC 120453Z AUTO 18007KT 10SM CLR 24/09 A3023 RMK AO2 SLP135 T02440094
cycle: 5

Station Type Date Time Source
KPRC TAF 2020/07/11 22:04 UTC NOAA

TAF
AMD KPRC 112202Z 1122/1218 17007KT P6SM VCTS FEW070CB SCT250
TEMPO 1122/1123 VRB10G20KT 5SM -TSRA BKN060CB BKN110
FM120000 24007KT P6SM SCT060 SCT120 OVC250

Example: see airport list